Time;durP1;ratioP1;P1;durP2;ratioP2;P2;SDS_P1;SDS_P2;PMS_P1;PMS_P2;Temp;Humidity;BMP_temperature;BMP_pressure;BME280_temperature;BME280_humidity;BME280_pressure;Samples;Min_cycle;Max_cycle;Signal;HPM_P1;HPM_P2
2021/10/08 00:01:51;;;;;;;28.35;6.50;;;;;;;;;;5055902;28;20037;-78
2021/10/08 00:04:17;;;;;;;29.13;6.05;;;;;;;;;;5056181;28;20076;-78
2021/10/08 00:06:42;;;;;;;16.83;5.57;;;;;;;;;;5055790;28;20484;-78
2021/10/08 00:09:07;;;;;;;19.83;5.63;;;;;;;;;;5056072;28;20031;-79
2021/10/08 00:11:33;;;;;;;16.65;5.13;;;;;;;;;;5055819;28;20442;-78
2021/10/08 00:13:58;;;;;;;20.85;5.95;;;;;;;;;;5055946;28;20027;-78
2021/10/08 00:16:23;;;;;;;22.38;5.93;;;;;;;;;;5056076;28;20020;-78
2021/10/08 00:18:49;;;;;;;28.35;5.72;;;;;;;;;;5055868;28;20037;-77
2021/10/08 00:21:14;;;;;;;20.60;5.30;;;;;;;;;;5054232;28;20128;-78
2021/10/08 00:23:39;;;;;;;24.52;5.93;;;;;;;;;;5055880;28;20139;-77
2021/10/08 00:26:04;;;;;;;23.60;5.68;;;;;;;;;;5055830;28;20041;-77
2021/10/08 00:28:30;;;;;;;22.67;5.45;;;;;;;;;;5055817;28;20092;-77
2021/10/08 00:30:55;;;;;;;15.50;5.22;;;;;;;;;;5055524;28;20025;-77
2021/10/08 00:33:20;;;;;;;18.27;5.50;;;;;;;;;;5056043;28;20036;-77
2021/10/08 00:35:46;;;;;;;22.88;5.38;;;;;;;;;;5055073;28;20103;-78
2021/10/08 00:38:11;;;;;;;25.55;5.60;;;;;;;;;;5055637;28;20028;-78
2021/10/08 00:40:38;;;;;;;20.33;5.60;;;;;;;;;;5055528;28;20534;-78
2021/10/08 00:43:03;;;;;;;35.15;6.97;;;;;;;;;;5055372;28;20370;-78
2021/10/08 00:45:29;;;;;;;29.83;6.75;;;;;;;;;;5054207;28;20036;-77
2021/10/08 00:48:01;;;;;;;20.85;6.15;;;;;;;;;;5055326;28;20035;-78
2021/10/08 00:50:27;;;;;;;22.92;5.95;;;;;;;;;;5055364;28;20043;-78
2021/10/08 00:52:52;;;;;;;18.00;5.97;;;;;;;;;;5055293;28;20513;-77
2021/10/08 00:55:18;;;;;;;35.10;6.97;;;;;;;;;;5055253;28;20465;-78
2021/10/08 00:57:45;;;;;;;26.20;6.60;;;;;;;;;;5053925;28;20021;-78
2021/10/08 01:00:11;;;;;;;27.92;6.07;;;;;;;;;;5055263;28;20021;-78
2021/10/08 01:02:36;;;;;;;24.35;6.50;;;;;;;;;;5055036;28;20056;-78
2021/10/08 01:05:01;;;;;;;27.35;6.30;;;;;;;;;;5055066;28;20025;-78
2021/10/08 01:07:27;;;;;;;25.88;6.25;;;;;;;;;;5055107;28;20057;-77
2021/10/08 01:09:52;;;;;;;17.77;5.80;;;;;;;;;;5054869;28;20044;-78
2021/10/08 01:12:17;;;;;;;19.63;5.72;;;;;;;;;;5053709;28;20108;-78
2021/10/08 01:14:42;;;;;;;20.55;6.30;;;;;;;;;;5054864;28;20480;-78
2021/10/08 01:17:12;;;;;;;22.90;6.20;;;;;;;;;;5054940;28;20037;-78
2021/10/08 01:19:37;;;;;;;28.45;6.30;;;;;;;;;;5054742;28;20021;-78
2021/10/08 01:22:02;;;;;;;28.60;5.80;;;;;;;;;;5054635;28;20044;-78
2021/10/08 01:24:27;;;;;;;22.13;6.40;;;;;;;;;;5054634;28;20078;-78
2021/10/08 01:26:53;;;;;;;16.70;5.47;;;;;;;;;;5054728;28;20477;-77
2021/10/08 01:29:18;;;;;;;28.00;7.00;;;;;;;;;;5054581;28;20040;-78
2021/10/08 01:31:43;;;;;;;33.28;8.68;;;;;;;;;;5054544;28;20029;-77
2021/10/08 01:34:08;;;;;;;17.50;5.88;;;;;;;;;;5054439;28;20454;-78
2021/10/08 01:36:34;;;;;;;22.38;5.95;;;;;;;;;;5054377;28;20025;-77
2021/10/08 01:38:59;;;;;;;27.88;6.00;;;;;;;;;;5054367;28;20075;-78
2021/10/08 01:41:24;;;;;;;38.75;9.93;;;;;;;;;;5053963;28;20396;-77
2021/10/08 01:43:50;;;;;;;53.13;17.20;;;;;;;;;;5054321;28;20021;-78
2021/10/08 01:46:15;;;;;;;47.70;10.80;;;;;;;;;;5054149;28;20136;-78
2021/10/08 01:48:40;;;;;;;34.88;8.02;;;;;;;;;;5054244;28;20016;-77
2021/10/08 01:51:06;;;;;;;19.40;6.15;;;;;;;;;;5053886;28;20017;-78
2021/10/08 01:53:31;;;;;;;27.67;6.10;;;;;;;;;;5054117;28;20040;-77
2021/10/08 01:55:56;;;;;;;16.15;5.20;;;;;;;;;;5053956;28;20100;-78
2021/10/08 01:58:21;;;;;;;20.67;4.88;;;;;;;;;;5054335;28;20465;-78
2021/10/08 02:00:47;;;;;;;26.33;5.82;;;;;;;;;;5053299;28;20029;-78
2021/10/08 02:03:12;;;;;;;22.30;5.55;;;;;;;;;;5053918;28;20032;-77
2021/10/08 02:05:37;;;;;;;28.35;6.97;;;;;;;;;;5053972;28;20075;-79
2021/10/08 02:08:03;;;;;;;16.40;5.40;;;;;;;;;;5053841;28;20429;-78
2021/10/08 02:10:28;;;;;;;27.88;6.13;;;;;;;;;;5053175;28;20021;-77
2021/10/08 02:12:53;;;;;;;26.15;7.28;;;;;;;;;;5053860;28;20354;-78
2021/10/08 02:15:19;;;;;;;20.50;6.00;;;;;;;;;;5053702;28;20068;-78
2021/10/08 02:17:44;;;;;;;14.38;4.55;;;;;;;;;;5053373;28;20032;-78
2021/10/08 02:20:10;;;;;;;27.38;6.50;;;;;;;;;;5053740;28;20028;-77
2021/10/08 02:22:35;;;;;;;18.95;6.60;;;;;;;;;;5053562;28;20045;-78
2021/10/08 02:25:01;;;;;;;20.08;5.15;;;;;;;;;;5053550;28;20035;-78
2021/10/08 02:27:26;;;;;;;28.05;5.70;;;;;;;;;;5053623;28;20453;-78
2021/10/08 02:29:51;;;;;;;24.25;5.35;;;;;;;;;;5053519;28;20044;-78
2021/10/08 02:32:17;;;;;;;22.00;4.68;;;;;;;;;;5053494;28;20029;-78
2021/10/08 02:34:42;;;;;;;16.17;5.55;;;;;;;;;;5053302;28;20507;-79
2021/10/08 02:37:07;;;;;;;28.75;5.85;;;;;;;;;;5053531;28;20043;-77
2021/10/08 02:39:32;;;;;;;22.40;5.78;;;;;;;;;;5053373;28;20078;-77
2021/10/08 02:42:00;;;;;;;12.10;4.80;;;;;;;;;;5053203;28;20035;-78
2021/10/08 02:44:25;;;;;;;19.80;5.50;;;;;;;;;;5053318;28;20035;-77
2021/10/08 02:46:50;;;;;;;19.88;5.68;;;;;;;;;;5053209;28;20024;-79
2021/10/08 02:49:21;;;;;;;22.08;6.38;;;;;;;;;;5053728;28;20472;-78
2021/10/08 02:51:46;;;;;;;21.52;5.72;;;;;;;;;;5053204;28;20021;-77
2021/10/08 02:54:12;;;;;;;21.98;6.68;;;;;;;;;;5053231;28;20033;-79
2021/10/08 02:56:37;;;;;;;34.22;8.55;;;;;;;;;;5053358;28;20013;-78
2021/10/08 02:59:02;;;;;;;49.28;10.80;;;;;;;;;;5053137;28;20041;-77
2021/10/08 03:01:27;;;;;;;45.60;9.98;;;;;;;;;;5053066;28;20462;-78
2021/10/08 03:03:53;;;;;;;67.57;11.65;;;;;;;;;;5052912;28;20025;-77
2021/10/08 03:06:18;;;;;;;47.25;10.70;;;;;;;;;;5053096;28;20032;-78
2021/10/08 03:08:45;;;;;;;70.88;13.23;;;;;;;;;;5053037;28;20025;-78
2021/10/08 03:11:10;;;;;;;92.10;16.20;;;;;;;;;;5053202;28;20028;-77
2021/10/08 03:13:36;;;;;;;71.45;13.48;;;;;;;;;;5053068;28;20033;-78
2021/10/08 03:16:01;;;;;;;67.70;11.18;;;;;;;;;;5052850;28;20025;-78
2021/10/08 03:18:26;;;;;;;32.08;6.82;;;;;;;;;;5053001;28;20507;-78
2021/10/08 03:20:51;;;;;;;18.98;6.25;;;;;;;;;;5054778;28;20116;-78
2021/10/08 03:23:17;;;;;;;33.28;7.50;;;;;;;;;;5057273;28;20025;-78
2021/10/08 03:25:42;;;;;;;27.00;5.78;;;;;;;;;;5056732;28;20021;-78
2021/10/08 03:28:09;;;;;;;17.85;5.00;;;;;;;;;;5056815;28;20032;-78
2021/10/08 03:30:34;;;;;;;14.30;5.07;;;;;;;;;;5056841;28;20025;-78
2021/10/08 03:32:59;;;;;;;21.42;6.15;;;;;;;;;;5056787;28;20428;-78
2021/10/08 03:35:25;;;;;;;23.25;5.43;;;;;;;;;;5056276;28;20076;-77
2021/10/08 03:37:56;;;;;;;24.08;7.75;;;;;;;;;;5056770;28;20476;-78
2021/10/08 03:40:31;;;;;;;29.10;6.80;;;;;;;;;;5056685;28;20025;-78
2021/10/08 03:42:59;;;;;;;26.25;6.78;;;;;;;;;;5056432;28;20116;-78
2021/10/08 03:45:30;;;;;;;18.45;6.05;;;;;;;;;;5056242;28;20045;-77
2021/10/08 03:50:24;;;;;;;17.48;5.35;;;;;;;;;;5056400;28;20396;-78
2021/10/08 03:52:50;;;;;;;20.58;6.28;;;;;;;;;;5056422;28;20021;-77
2021/10/08 03:55:16;;;;;;;23.42;5.88;;;;;;;;;;5056405;28;20037;-78
2021/10/08 03:57:41;;;;;;;27.23;7.35;;;;;;;;;;5056293;28;20021;-78
2021/10/08 04:00:07;;;;;;;47.05;8.68;;;;;;;;;;5056321;28;20027;-78
2021/10/08 04:02:32;;;;;;;38.10;9.73;;;;;;;;;;5056187;28;20362;-78
2021/10/08 04:04:57;;;;;;;26.27;6.90;;;;;;;;;;5056201;28;20047;-78
2021/10/08 04:07:22;;;;;;;37.63;8.05;;;;;;;;;;5054900;28;20061;-78
2021/10/08 04:09:48;;;;;;;61.45;10.18;;;;;;;;;;5056034;28;20028;-77
2021/10/08 04:12:13;;;;;;;28.67;6.50;;;;;;;;;;5056039;28;20478;-78
2021/10/08 04:14:38;;;;;;;20.88;6.65;;;;;;;;;;5056077;28;20017;-78
2021/10/08 04:17:03;;;;;;;50.38;10.82;;;;;;;;;;5055902;28;20036;-78
2021/10/08 04:19:30;;;;;;;56.33;11.82;;;;;;;;;;5055914;28;20365;-77
2021/10/08 04:21:55;;;;;;;71.63;13.70;;;;;;;;;;5055792;28;20029;-78
2021/10/08 04:24:20;;;;;;;70.05;13.13;;;;;;;;;;5055819;28;20032;-78
2021/10/08 04:26:46;;;;;;;81.97;13.70;;;;;;;;;;5056123;28;20021;-78
2021/10/08 04:29:11;;;;;;;113.72;14.68;;;;;;;;;;5055804;28;20021;-78
2021/10/08 04:31:36;;;;;;;69.95;13.32;;;;;;;;;;5054975;28;20033;-78
2021/10/08 04:34:01;;;;;;;75.85;12.82;;;;;;;;;;5055260;28;20029;-78
2021/10/08 04:36:27;;;;;;;85.53;13.00;;;;;;;;;;5055237;28;20021;-78
2021/10/08 04:38:52;;;;;;;97.25;17.48;;;;;;;;;;5055482;28;20071;-78
2021/10/08 04:41:18;;;;;;;105.55;17.50;;;;;;;;;;5055342;28;20052;-78
2021/10/08 04:43:43;;;;;;;99.43;16.52;;;;;;;;;;5055636;28;20021;-78
2021/10/08 04:46:08;;;;;;;86.57;16.23;;;;;;;;;;5054112;28;20032;-78
2021/10/08 04:48:34;;;;;;;171.30;17.55;;;;;;;;;;5055379;28;20450;-78
2021/10/08 04:50:59;;;;;;;83.78;15.63;;;;;;;;;;5055338;28;20025;-78
2021/10/08 04:53:25;;;;;;;81.05;15.07;;;;;;;;;;5055312;28;20068;-78
2021/10/08 04:55:50;;;;;;;87.13;15.52;;;;;;;;;;5055186;28;20028;-78
2021/10/08 04:58:16;;;;;;;134.15;17.10;;;;;;;;;;5055200;28;20025;-78
2021/10/08 05:00:42;;;;;;;75.65;15.40;;;;;;;;;;5055141;28;20043;-80
2021/10/08 05:03:10;;;;;;;77.63;13.95;;;;;;;;;;5055017;28;20029;-78
2021/10/08 05:05:36;;;;;;;109.07;15.93;;;;;;;;;;5055078;28;20100;-77
2021/10/08 05:08:01;;;;;;;100.00;16.75;;;;;;;;;;5054967;28;20083;-78
2021/10/08 05:10:27;;;;;;;83.35;14.18;;;;;;;;;;5053607;28;20021;-78
2021/10/08 05:12:52;;;;;;;68.10;13.20;;;;;;;;;;5054896;28;20021;-78
2021/10/08 05:15:17;;;;;;;92.78;15.20;;;;;;;;;;5054906;28;20436;-78
2021/10/08 05:17:42;;;;;;;82.43;13.65;;;;;;;;;;5054781;28;20029;-78
2021/10/08 05:20:08;;;;;;;72.55;12.20;;;;;;;;;;5054847;28;20017;-78
2021/10/08 05:22:33;;;;;;;69.63;13.05;;;;;;;;;;5054627;28;20076;-77
2021/10/08 05:24:58;;;;;;;89.15;13.70;;;;;;;;;;5054630;28;20020;-78
2021/10/08 05:27:24;;;;;;;60.65;12.73;;;;;;;;;;5054640;28;20377;-78
2021/10/08 05:29:49;;;;;;;66.78;11.77;;;;;;;;;;5054254;28;20043;-78
2021/10/08 05:32:14;;;;;;;86.25;11.73;;;;;;;;;;5054500;28;20017;-77
2021/10/08 05:34:40;;;;;;;47.47;11.00;;;;;;;;;;5054072;28;20405;-78
2021/10/08 05:37:06;;;;;;;74.75;11.40;;;;;;;;;;5054076;28;20489;-78
2021/10/08 05:39:31;;;;;;;48.10;11.23;;;;;;;;;;5054436;28;20020;-78
2021/10/08 05:41:56;;;;;;;58.47;12.52;;;;;;;;;;5053970;28;20037;-78
2021/10/08 05:44:21;;;;;;;44.50;11.10;;;;;;;;;;5053189;28;20033;-78
2021/10/08 05:46:47;;;;;;;51.53;11.68;;;;;;;;;;5053842;28;20028;-78
2021/10/08 05:49:12;;;;;;;65.32;11.20;;;;;;;;;;5054606;28;20025;-78
2021/10/08 05:51:37;;;;;;;86.55;12.10;;;;;;;;;;5054451;28;20039;-79
2021/10/08 05:54:02;;;;;;;68.25;10.68;;;;;;;;;;5054195;28;20035;-78
2021/10/08 05:56:28;;;;;;;68.97;12.80;;;;;;;;;;5054234;28;20052;-78
2021/10/08 05:58:53;;;;;;;68.50;12.10;;;;;;;;;;5053896;28;20032;-78
2021/10/08 06:01:18;;;;;;;75.45;11.18;;;;;;;;;;5053973;28;20033;-78
2021/10/08 06:03:44;;;;;;;59.20;11.35;;;;;;;;;;5053970;28;20408;-79
2021/10/08 06:06:09;;;;;;;69.85;11.60;;;;;;;;;;5054101;28;20071;-78
2021/10/08 06:08:34;;;;;;;57.33;11.32;;;;;;;;;;5053795;28;20016;-78
2021/10/08 06:10:59;;;;;;;44.72;11.45;;;;;;;;;;5053844;28;20021;-78
2021/10/08 06:13:25;;;;;;;48.90;10.65;;;;;;;;;;5053496;28;20033;-78
2021/10/08 06:15:51;;;;;;;58.25;11.15;;;;;;;;;;5053725;28;20071;-78
2021/10/08 06:18:16;;;;;;;58.63;10.85;;;;;;;;;;5053717;28;20120;-78
2021/10/08 06:20:41;;;;;;;55.55;10.65;;;;;;;;;;5053570;28;20036;-78
2021/10/08 06:23:06;;;;;;;54.80;10.90;;;;;;;;;;5053554;28;20370;-78
2021/10/08 06:25:32;;;;;;;58.80;10.07;;;;;;;;;;5053620;28;20017;-78
2021/10/08 06:27:57;;;;;;;37.97;9.45;;;;;;;;;;5052450;28;20033;-78
2021/10/08 06:30:22;;;;;;;38.70;9.60;;;;;;;;;;5053221;28;20518;-78
2021/10/08 06:32:48;;;;;;;38.55;9.75;;;;;;;;;;5053428;28;20059;-78
2021/10/08 06:35:14;;;;;;;32.63;8.73;;;;;;;;;;5053544;28;20126;-78
2021/10/08 06:37:39;;;;;;;32.30;8.15;;;;;;;;;;5052913;28;20040;-78
2021/10/08 06:40:05;;;;;;;37.60;8.57;;;;;;;;;;5052908;28;20021;-78
2021/10/08 06:42:31;;;;;;;39.30;7.82;;;;;;;;;;5053346;28;20406;-78
2021/10/08 06:44:57;;;;;;;35.38;8.10;;;;;;;;;;5053611;28;20021;-78
2021/10/08 06:47:22;;;;;;;36.08;8.20;;;;;;;;;;5053611;28;20063;-77
2021/10/08 06:49:48;;;;;;;28.98;8.10;;;;;;;;;;5053669;28;20036;-78
2021/10/08 06:52:13;;;;;;;29.48;8.65;;;;;;;;;;5053276;28;20028;-78
2021/10/08 06:54:39;;;;;;;31.27;8.30;;;;;;;;;;5052795;28;20032;-78
2021/10/08 06:57:04;;;;;;;25.90;7.80;;;;;;;;;;5053210;28;20041;-78
2021/10/08 06:59:29;;;;;;;23.92;7.65;;;;;;;;;;5053170;28;20067;-78
2021/10/08 07:01:55;;;;;;;27.85;7.07;;;;;;;;;;5052826;28;20358;-78
2021/10/08 07:04:21;;;;;;;25.10;8.80;;;;;;;;;;5053242;28;20029;-79
2021/10/08 07:06:46;;;;;;;22.70;6.95;;;;;;;;;;5052886;28;20025;-79
2021/10/08 07:09:12;;;;;;;25.33;7.43;;;;;;;;;;5053237;28;20028;-78
2021/10/08 07:11:37;;;;;;;19.10;6.18;;;;;;;;;;5053423;28;20347;-78
2021/10/08 07:14:03;;;;;;;27.67;7.65;;;;;;;;;;5052945;28;20028;-78
2021/10/08 07:16:28;;;;;;;29.98;7.15;;;;;;;;;;5053325;28;20056;-78
2021/10/08 07:18:55;;;;;;;23.90;6.82;;;;;;;;;;5053304;28;20033;-78
2021/10/08 07:21:21;;;;;;;22.27;7.00;;;;;;;;;;5053042;28;20021;-78
2021/10/08 07:23:47;;;;;;;30.73;6.88;;;;;;;;;;5052134;28;20066;-79
2021/10/08 07:26:13;;;;;;;22.90;6.22;;;;;;;;;;5052816;28;20029;-78
2021/10/08 07:28:38;;;;;;;22.42;6.40;;;;;;;;;;5044885;28;20055;-80
2021/10/08 07:31:04;;;;;;;18.40;6.90;;;;;;;;;;5052814;28;20433;-78
2021/10/08 07:33:29;;;;;;;20.58;6.47;;;;;;;;;;5052662;28;20424;-78
2021/10/08 07:35:55;;;;;;;24.35;6.38;;;;;;;;;;5052347;28;20053;-78
2021/10/08 07:38:20;;;;;;;18.70;6.38;;;;;;;;;;5052516;28;20377;-79
2021/10/08 07:40:45;;;;;;;20.55;6.30;;;;;;;;;;5052472;28;20033;-78
2021/10/08 07:43:11;;;;;;;18.65;5.90;;;;;;;;;;5052748;28;20124;-78
2021/10/08 07:45:36;;;;;;;15.38;6.05;;;;;;;;;;5052869;28;20389;-78
2021/10/08 07:48:01;;;;;;;15.95;5.50;;;;;;;;;;5052439;28;20075;-78
2021/10/08 07:50:26;;;;;;;13.70;5.13;;;;;;;;;;5052174;28;20033;-78
2021/10/08 07:52:52;;;;;;;17.73;6.63;;;;;;;;;;5052088;28;20017;-78
2021/10/08 07:55:17;;;;;;;18.98;6.32;;;;;;;;;;5052602;28;20478;-78
2021/10/08 07:57:42;;;;;;;20.70;6.30;;;;;;;;;;5052587;28;20035;-77
2021/10/08 08:00:09;;;;;;;15.40;5.82;;;;;;;;;;5052804;28;20017;-78
2021/10/08 08:02:34;;;;;;;16.50;5.10;;;;;;;;;;5046346;28;20087;-78
2021/10/08 08:04:59;;;;;;;13.65;5.00;;;;;;;;;;5048871;28;20071;-78
2021/10/08 08:07:25;;;;;;;8.77;4.65;;;;;;;;;;5049871;28;20028;-78
2021/10/08 08:09:50;;;;;;;13.85;4.22;;;;;;;;;;5052824;28;20063;-78
2021/10/08 08:12:16;;;;;;;13.52;4.13;;;;;;;;;;5052610;28;20098;-79
2021/10/08 08:14:41;;;;;;;14.75;3.92;;;;;;;;;;5053507;28;20021;-80
2021/10/08 08:17:06;;;;;;;6.93;3.25;;;;;;;;;;5052865;28;20033;-79
2021/10/08 08:19:31;;;;;;;7.15;3.10;;;;;;;;;;5052585;28;20056;-79
2021/10/08 08:21:57;;;;;;;7.68;3.83;;;;;;;;;;5052520;28;20618;-78
2021/10/08 08:24:22;;;;;;;12.02;4.63;;;;;;;;;;5052324;28;20029;-78
2021/10/08 08:26:47;;;;;;;10.10;3.30;;;;;;;;;;5051570;28;20017;-78
2021/10/08 08:29:13;;;;;;;7.28;3.15;;;;;;;;;;5051614;28;20031;-79
2021/10/08 08:31:38;;;;;;;9.10;3.67;;;;;;;;;;5050083;28;20033;-78
2021/10/08 08:34:04;;;;;;;11.70;3.00;;;;;;;;;;5052324;28;20478;-79
2021/10/08 08:36:30;;;;;;;9.60;3.47;;;;;;;;;;5052517;28;20020;-79
2021/10/08 08:38:59;;;;;;;11.90;3.38;;;;;;;;;;5051847;28;20032;-78
2021/10/08 08:41:24;;;;;;;7.18;3.78;;;;;;;;;;5051916;28;20028;-78
2021/10/08 08:43:50;;;;;;;7.00;3.10;;;;;;;;;;5052191;28;20104;-78
2021/10/08 08:46:16;;;;;;;6.32;3.15;;;;;;;;;;5052273;28;20033;-79
2021/10/08 08:48:41;;;;;;;10.73;3.80;;;;;;;;;;5051901;28;20032;-79
2021/10/08 08:51:07;;;;;;;9.35;3.00;;;;;;;;;;5052374;28;20021;-78
2021/10/08 08:53:32;;;;;;;9.02;3.50;;;;;;;;;;5052601;28;20078;-78
2021/10/08 08:55:57;;;;;;;8.80;3.60;;;;;;;;;;5051801;28;20071;-79
2021/10/08 08:58:22;;;;;;;7.72;3.00;;;;;;;;;;5052159;28;20083;-78
2021/10/08 09:00:54;;;;;;;11.93;4.07;;;;;;;;;;5051361;28;20029;-78
2021/10/08 09:03:20;;;;;;;8.02;4.10;;;;;;;;;;5051815;28;20040;-78
2021/10/08 09:05:46;;;;;;;9.65;4.63;;;;;;;;;;5052236;28;20021;-79
2021/10/08 09:08:13;;;;;;;9.15;4.22;;;;;;;;;;5052325;28;20401;-78
2021/10/08 09:10:39;;;;;;;10.40;3.70;;;;;;;;;;5051306;28;20016;-79
2021/10/08 09:13:05;;;;;;;7.05;3.25;;;;;;;;;;5051672;28;20052;-79
2021/10/08 09:15:43;;;;;;;10.10;4.18;;;;;;;;;;5051930;28;20052;-79
2021/10/08 09:18:10;;;;;;;9.27;3.08;;;;;;;;;;5050640;28;20480;-78
2021/10/08 09:20:36;;;;;;;8.43;3.63;;;;;;;;;;5050483;28;20508;-78
2021/10/08 09:23:02;;;;;;;8.77;3.50;;;;;;;;;;5050722;28;20198;-78
2021/10/08 09:25:33;;;;;;;11.50;3.30;;;;;;;;;;5051129;28;20100;-78
2021/10/08 09:28:06;;;;;;;9.38;3.38;;;;;;;;;;5051404;28;20486;-83
2021/10/08 09:30:39;;;;;;;8.05;3.75;;;;;;;;;;5051073;28;20055;-78
2021/10/08 09:33:06;;;;;;;11.00;3.95;;;;;;;;;;5051042;28;20159;-78
2021/10/08 09:35:31;;;;;;;7.45;3.55;;;;;;;;;;5051439;28;20048;-79
2021/10/08 09:37:59;;;;;;;6.38;3.10;;;;;;;;;;5051791;28;20033;-78
2021/10/08 09:40:27;;;;;;;9.52;4.03;;;;;;;;;;5050799;28;20028;-78
2021/10/08 09:43:01;;;;;;;14.13;4.97;;;;;;;;;;5050979;28;20036;-79
2021/10/08 09:45:42;;;;;;;9.48;3.78;;;;;;;;;;5051123;28;20033;-79
2021/10/08 09:48:08;;;;;;;11.38;3.83;;;;;;;;;;5050569;28;20481;-79
2021/10/08 09:50:34;;;;;;;8.20;3.63;;;;;;;;;;5051387;28;20039;-78
2021/10/08 09:53:07;;;;;;;8.50;3.42;;;;;;;;;;5051340;28;20029;-80
2021/10/08 09:55:32;;;;;;;8.93;3.75;;;;;;;;;;5051075;28;20025;-80
2021/10/08 09:57:58;;;;;;;11.05;3.35;;;;;;;;;;5050442;28;20128;-79
2021/10/08 10:00:40;;;;;;;10.98;3.15;;;;;;;;;;5050661;28;20484;-80
2021/10/08 10:03:06;;;;;;;10.90;3.55;;;;;;;;;;5050750;28;20493;-78
2021/10/08 10:05:32;;;;;;;9.82;3.58;;;;;;;;;;5050737;28;20061;-78
2021/10/08 10:07:58;;;;;;;6.25;2.95;;;;;;;;;;5050543;28;20496;-78
2021/10/08 10:10:23;;;;;;;7.55;3.30;;;;;;;;;;5049517;28;20390;-79
2021/10/08 10:12:49;;;;;;;7.78;2.95;;;;;;;;;;5049524;28;20095;-83
2021/10/08 10:15:15;;;;;;;8.35;3.50;;;;;;;;;;5046683;28;20024;-79
2021/10/08 10:17:41;;;;;;;9.88;3.45;;;;;;;;;;5050616;28;20371;-79
2021/10/08 10:20:08;;;;;;;6.32;3.00;;;;;;;;;;5051032;28;20067;-81
2021/10/08 10:22:34;;;;;;;5.95;2.80;;;;;;;;;;5050031;28;20318;-79
2021/10/08 10:24:59;;;;;;;5.25;2.95;;;;;;;;;;5050387;28;20494;-79
2021/10/08 10:27:25;;;;;;;6.30;2.65;;;;;;;;;;5050142;28;20033;-79
2021/10/08 10:29:50;;;;;;;6.18;2.80;;;;;;;;;;5049829;28;20374;-79
2021/10/08 10:32:15;;;;;;;8.70;2.80;;;;;;;;;;5050654;28;20033;-78
2021/10/08 10:34:41;;;;;;;6.30;2.80;;;;;;;;;;5050377;28;20500;-79
2021/10/08 10:37:07;;;;;;;6.68;2.90;;;;;;;;;;5049639;28;20174;-78
2021/10/08 10:39:33;;;;;;;5.13;2.83;;;;;;;;;;5050225;28;20072;-79
2021/10/08 10:42:01;;;;;;;7.65;3.17;;;;;;;;;;5049888;28;20092;-79
2021/10/08 10:44:29;;;;;;;8.73;3.80;;;;;;;;;;5049944;28;20139;-78
2021/10/08 10:50:10;;;;;;;8.05;3.33;;;;;;;;;;5049967;28;20123;-79
2021/10/08 10:52:45;;;;;;;5.90;2.70;;;;;;;;;;5048213;28;20091;-78
2021/10/08 10:55:10;;;;;;;;;;;;;;;;;;5050298;28;20474;-78
2021/10/08 10:57:46;;;;;;;12.48;2.42;;;;;;;;;;5049636;28;19908;-78
2021/10/08 11:00:25;;;;;;;5.93;2.53;;;;;;;;;;5046498;28;20037;-80
2021/10/08 11:03:07;;;;;;;8.27;2.50;;;;;;;;;;5049762;28;20064;-79
2021/10/08 11:05:33;;;;;;;6.53;2.60;;;;;;;;;;5049207;28;20044;-79
2021/10/08 11:08:07;;;;;;;8.00;2.63;;;;;;;;;;5058479;28;20032;-78
2021/10/08 11:10:33;;;;;;;6.88;2.88;;;;;;;;;;5069462;28;20043;-79
2021/10/08 11:13:17;;;;;;;8.07;2.55;;;;;;;;;;5068549;28;20017;-82
2021/10/08 11:15:51;;;;;;;6.60;2.70;;;;;;;;;;5057927;28;20029;-78
2021/10/08 11:18:33;;;;;;;8.63;2.70;;;;;;;;;;5056675;28;20057;-79
2021/10/08 11:20:58;;;;;;;7.88;3.20;;;;;;;;;;5049703;28;20060;-78
2021/10/08 11:23:28;;;;;;;5.18;2.50;;;;;;;;;;5048175;28;20453;-79
2021/10/08 11:25:58;;;;;;;5.07;2.63;;;;;;;;;;5046685;28;20417;-79
2021/10/08 11:28:31;;;;;;;7.18;2.95;;;;;;;;;;5048381;28;20068;-79
2021/10/08 11:30:57;;;;;;;6.57;2.38;;;;;;;;;;5047246;28;20425;-80
2021/10/08 11:33:32;;;;;;;7.70;2.95;;;;;;;;;;5048431;28;20071;-80
2021/10/08 11:35:57;;;;;;;5.10;3.17;;;;;;;;;;5046923;28;20083;-78
2021/10/08 11:38:24;;;;;;;6.00;2.58;;;;;;;;;;5048397;28;20060;-79
2021/10/08 11:40:49;;;;;;;5.38;2.75;;;;;;;;;;5042657;28;20047;-79
2021/10/08 11:43:23;;;;;;;6.88;2.53;;;;;;;;;;5052369;28;20048;-80
2021/10/08 11:45:52;;;;;;;12.02;2.90;;;;;;;;;;5051930;28;20748;-79
2021/10/08 11:50:52;;;;;;;9.18;3.00;;;;;;;;;;5052134;28;20063;-84
2021/10/08 11:53:17;;;;;;;5.80;2.53;;;;;;;;;;5049684;28;20374;-81
2021/10/08 11:55:43;;;;;;;4.20;2.20;;;;;;;;;;5052981;28;20040;-79
2021/10/08 11:58:10;;;;;;;4.88;2.42;;;;;;;;;;5052189;28;20017;-79
2021/10/08 12:00:43;;;;;;;5.18;2.75;;;;;;;;;;5052520;28;20025;-79
2021/10/08 12:03:12;;;;;;;5.72;2.42;;;;;;;;;;5052006;28;20052;-79
2021/10/08 12:06:10;;;;;;;8.80;2.72;;;;;;;;;;5052218;28;20599;-81
2021/10/08 12:08:37;;;;;;;6.88;3.35;;;;;;;;;;5008576;28;20037;-79
2021/10/08 12:11:07;;;;;;;8.00;3.20;;;;;;;;;;5042378;28;20033;-80
2021/10/08 12:13:39;;;;;;;6.93;2.80;;;;;;;;;;5051850;28;20359;-78
2021/10/08 12:16:05;;;;;;;5.45;2.88;;;;;;;;;;5052694;28;20423;-79
2021/10/08 12:18:30;;;;;;;7.05;3.42;;;;;;;;;;5052059;28;20037;-79
2021/10/08 12:21:15;;;;;;;10.15;3.28;;;;;;;;;;5052717;28;20355;-80
2021/10/08 12:23:41;;;;;;;5.68;2.40;;;;;;;;;;5052231;28;20041;-78
2021/10/08 12:26:06;;;;;;;9.73;3.42;;;;;;;;;;5052460;28;20032;-79
2021/10/08 12:28:31;;;;;;;6.82;2.65;;;;;;;;;;5052498;28;20021;-81
2021/10/08 12:30:56;;;;;;;5.43;2.60;;;;;;;;;;5052251;28;20025;-79
2021/10/08 12:33:24;;;;;;;5.10;2.65;;;;;;;;;;5052004;28;20120;-79
2021/10/08 12:36:08;;;;;;;5.95;2.63;;;;;;;;;;5051692;28;20058;-79
2021/10/08 12:39:06;;;;;;;10.13;3.25;;;;;;;;;;5052404;28;20037;-79
2021/10/08 12:41:45;;;;;;;4.80;2.58;;;;;;;;;;5039398;28;20520;-80
2021/10/08 12:44:17;;;;;;;10.38;2.97;;;;;;;;;;5051748;28;20083;-79
2021/10/08 12:46:43;;;;;;;7.07;2.90;;;;;;;;;;5051666;28;20124;-79
2021/10/08 12:49:10;;;;;;;4.10;2.13;;;;;;;;;;5052463;28;20033;-79
2021/10/08 12:51:45;;;;;;;8.32;2.65;;;;;;;;;;5051055;28;20074;-79
2021/10/08 12:54:31;;;;;;;6.88;2.70;;;;;;;;;;5051501;28;20041;-78
2021/10/08 12:57:08;;;;;;;8.98;2.70;;;;;;;;;;5050975;28;20032;-79
2021/10/08 12:59:52;;;;;;;8.10;3.58;;;;;;;;;;5051166;28;20036;-79
2021/10/08 13:02:18;;;;;;;10.32;2.67;;;;;;;;;;5051866;28;20025;-79
2021/10/08 13:04:44;;;;;;;5.47;2.58;;;;;;;;;;5051595;28;20045;-78
2021/10/08 13:07:14;;;;;;;8.07;2.70;;;;;;;;;;5054049;28;20020;-78
2021/10/08 13:09:41;;;;;;;8.55;3.05;;;;;;;;;;5054197;28;20063;-80
2021/10/08 13:12:06;;;;;;;6.05;2.65;;;;;;;;;;5054557;28;20107;-78
2021/10/08 13:14:31;;;;;;;13.65;3.33;;;;;;;;;;5063115;28;20100;-79
2021/10/08 13:16:56;;;;;;;5.43;2.50;;;;;;;;;;5062163;28;20044;-80
2021/10/08 13:19:28;;;;;;;8.05;2.85;;;;;;;;;;5054243;28;20442;-79
2021/10/08 13:21:53;;;;;;;5.78;2.63;;;;;;;;;;5052993;28;20074;-79
2021/10/08 13:24:18;;;;;;;4.97;2.75;;;;;;;;;;5051546;28;20017;-79
2021/10/08 13:26:44;;;;;;;9.13;4.72;;;;;;;;;;5065439;28;20085;-78
2021/10/08 13:29:09;;;;;;;7.97;3.17;;;;;;;;;;5051190;28;20036;-78
2021/10/08 13:31:34;;;;;;;8.55;3.15;;;;;;;;;;5051167;28;20025;-79
2021/10/08 13:33:59;;;;;;;6.68;2.78;;;;;;;;;;5051527;28;20104;-78
2021/10/08 13:36:25;;;;;;;4.95;2.92;;;;;;;;;;5054387;28;20473;-79
2021/10/08 13:38:50;;;;;;;7.43;3.80;;;;;;;;;;5051344;28;20447;-78
2021/10/08 13:41:15;;;;;;;11.60;4.72;;;;;;;;;;5050697;28;20462;-78
2021/10/08 13:43:40;;;;;;;7.35;3.70;;;;;;;;;;5049609;28;20024;-79
2021/10/08 13:46:06;;;;;;;11.15;3.08;;;;;;;;;;5050217;28;20098;-84
2021/10/08 13:48:31;;;;;;;11.32;3.17;;;;;;;;;;5050753;28;20104;-79
2021/10/08 13:50:56;;;;;;;6.63;3.45;;;;;;;;;;5053436;28;20023;-78
2021/10/08 13:53:22;;;;;;;7.30;3.05;;;;;;;;;;5054277;28;20456;-78
2021/10/08 13:55:47;;;;;;;5.68;2.75;;;;;;;;;;5050712;28;20103;-78
2021/10/08 13:58:12;;;;;;;6.95;2.90;;;;;;;;;;5050292;28;20424;-79
2021/10/08 14:00:44;;;;;;;8.82;3.20;;;;;;;;;;5056760;28;20017;-79
2021/10/08 14:05:52;;;;;;;10.48;3.20;;;;;;;;;;5050190;28;20013;-78
2021/10/08 14:10:46;;;;;;;6.95;2.85;;;;;;;;;;5051428;28;20024;-80
2021/10/08 14:13:11;;;;;;;7.40;3.20;;;;;;;;;;5051512;28;20120;-78
2021/10/08 14:15:37;;;;;;;6.97;2.72;;;;;;;;;;5050278;28;20445;-79
2021/10/08 14:18:02;;;;;;;8.73;3.22;;;;;;;;;;5050351;28;20104;-80
2021/10/08 14:20:28;;;;;;;4.78;2.80;;;;;;;;;;5049765;28;20032;-79
2021/10/08 14:22:53;;;;;;;7.65;3.05;;;;;;;;;;5051529;28;20024;-78
2021/10/08 14:25:18;;;;;;;9.15;2.70;;;;;;;;;;5050217;28;20036;-79
2021/10/08 14:27:44;;;;;;;5.38;3.00;;;;;;;;;;5050452;28;20040;-78
2021/10/08 14:30:11;;;;;;;7.50;3.13;;;;;;;;;;5050847;28;20027;-79
2021/10/08 14:32:36;;;;;;;9.52;2.50;;;;;;;;;;5050276;28;20017;-79
2021/10/08 14:35:03;;;;;;;11.35;3.97;;;;;;;;;;5049865;28;20196;-78
2021/10/08 14:37:28;;;;;;;6.97;3.50;;;;;;;;;;5050238;28;20032;-79
2021/10/08 14:39:53;;;;;;;10.95;3.00;;;;;;;;;;5046019;28;20033;-80
2021/10/08 14:42:19;;;;;;;7.85;3.00;;;;;;;;;;5050133;28;20408;-79
2021/10/08 14:44:44;;;;;;;5.70;2.78;;;;;;;;;;5049094;28;20461;-79